createdAt,value
2018-04-16T00:00:19.325Z,78.40
2018-04-16T00:02:48.541Z,78.63
2018-04-16T00:05:18.543Z,78.71
2018-04-16T00:07:48.505Z,78.76
2018-04-16T00:10:17.783Z,78.78
2018-04-16T00:12:47.014Z,78.81
2018-04-16T00:15:16.232Z,78.67
2018-04-16T00:17:45.486Z,78.52
2018-04-16T00:20:14.764Z,78.54
2018-04-16T00:22:44.750Z,78.18
2018-04-16T00:25:13.998Z,78.42
2018-04-16T00:27:43.225Z,78.39
2018-04-16T00:30:12.420Z,78.34
2018-04-16T00:32:47.065Z,78.50
2018-04-16T00:35:21.855Z,78.68
2018-04-16T00:37:56.539Z,78.63
2018-04-16T00:40:31.965Z,78.68
2018-04-16T00:43:07.427Z,78.68
2018-04-16T00:45:42.012Z,78.69
2018-04-16T00:48:16.682Z,78.74
2018-04-16T00:50:51.301Z,78.62
2018-04-16T00:53:26.822Z,78.79
2018-04-16T00:56:01.535Z,78.65
2018-04-16T00:58:36.238Z,78.69
2018-04-16T01:01:10.717Z,78.37
2018-04-16T01:03:45.233Z,78.46
2018-04-16T01:06:19.729Z,78.50
2018-04-16T01:22:23.969Z,79.45
2018-04-16T01:24:59.542Z,79.70
2018-04-16T01:27:34.944Z,79.93
2018-04-16T01:30:09.665Z,79.99
2018-04-16T01:32:44.322Z,80.26
2018-04-16T01:35:18.905Z,80.35
2018-04-16T01:37:53.578Z,80.34
2018-04-16T01:40:28.358Z,80.53
2018-04-16T01:43:03.133Z,80.48
2018-04-16T01:45:37.806Z,80.69
2018-04-16T01:48:12.547Z,80.79
2018-04-16T01:50:47.244Z,80.81
2018-04-16T01:53:21.796Z,81.03
2018-04-16T01:55:56.435Z,81.07
2018-04-16T01:58:31.745Z,81.14
2018-04-16T02:01:06.274Z,81.20
2018-04-16T02:03:41.005Z,81.09
2018-04-16T02:06:15.777Z,81.12
2018-04-16T02:08:50.317Z,81.17
2018-04-16T02:11:25.091Z,81.25
2018-04-16T02:13:59.785Z,81.25
2018-04-16T02:16:34.459Z,81.28
2018-04-16T02:19:09.983Z,81.30
2018-04-16T02:21:45.520Z,81.27
2018-04-16T02:24:20.090Z,81.06
2018-04-16T02:40:29.496Z,81.64
2018-04-16T02:43:05.125Z,81.65
2018-04-16T02:45:39.834Z,81.68
2018-04-16T02:48:14.587Z,81.71
2018-04-16T02:50:50.060Z,81.79
2018-04-16T03:06:59.223Z,81.71
2018-04-16T03:09:33.978Z,81.63
2018-04-16T03:12:08.648Z,81.89
2018-04-16T03:14:43.284Z,81.99
2018-04-16T03:17:17.968Z,82.03
2018-04-16T03:33:29.194Z,82.82
2018-04-16T03:36:03.702Z,82.99
2018-04-16T03:38:38.219Z,83.19
2018-04-16T03:41:12.777Z,83.12
2018-04-16T03:43:47.586Z,83.28
2018-04-16T03:46:22.308Z,83.34
2018-04-16T03:48:57.762Z,83.40
2018-04-16T03:51:32.542Z,83.30
2018-04-16T03:54:01.783Z,83.44
2018-04-16T03:56:31.025Z,83.26
2018-04-16T03:59:01.015Z,83.50
2018-04-16T04:01:31.741Z,83.48
2018-04-16T04:04:00.964Z,83.63
2018-04-16T04:06:30.199Z,83.57
2018-04-16T04:08:59.433Z,83.42
2018-04-16T04:11:28.657Z,83.41
2018-04-16T04:13:59.386Z,83.42
2018-04-16T04:16:29.407Z,83.38
2018-04-16T04:18:59.406Z,83.30
2018-04-16T04:21:28.621Z,83.45
2018-04-16T04:24:15.252Z,83.47
2018-04-16T04:27:02.837Z,83.41
2018-04-16T04:29:49.661Z,83.51
2018-04-16T04:32:18.864Z,83.79
2018-04-16T04:34:48.836Z,83.72
2018-04-16T04:37:18.082Z,83.78
2018-04-16T04:39:47.405Z,83.71
2018-04-16T04:42:16.594Z,83.74
2018-04-16T04:44:45.812Z,83.77
2018-04-16T04:47:15.061Z,83.77
2018-04-16T04:49:44.299Z,83.82
2018-04-16T04:52:13.561Z,83.87
2018-04-16T04:54:43.558Z,84.03
2018-04-16T04:57:12.808Z,84.15
2018-04-16T04:59:42.027Z,84.01
2018-04-16T05:02:11.268Z,84.09
2018-04-16T05:04:41.245Z,83.78
2018-04-16T05:07:10.486Z,83.67
2018-04-16T05:09:40.497Z,83.51
2018-04-16T05:12:09.752Z,83.59
2018-04-16T05:14:39.162Z,83.53
2018-04-16T05:17:08.407Z,83.39
2018-04-16T05:19:37.646Z,83.52
2018-04-16T05:22:06.851Z,83.41
2018-04-16T05:24:36.085Z,83.53
2018-04-16T05:27:05.349Z,83.52
2018-04-16T05:29:34.631Z,83.63
2018-04-16T05:32:03.840Z,83.66
2018-04-16T05:34:33.103Z,83.74
2018-04-16T05:37:02.342Z,83.90
2018-04-16T05:39:31.634Z,83.85
2018-04-16T05:42:02.605Z,83.76
2018-04-16T05:44:31.817Z,83.45
2018-04-16T05:47:01.789Z,83.48
2018-04-16T05:49:31.066Z,83.48
2018-04-16T05:52:00.280Z,83.47
2018-04-16T05:54:29.526Z,83.26
2018-04-16T05:56:58.710Z,83.30
2018-04-16T05:59:27.930Z,82.83
2018-04-16T06:01:57.908Z,82.55
2018-04-16T06:04:27.122Z,82.35
2018-04-16T06:06:56.321Z,81.94
2018-04-16T06:09:26.322Z,81.79
2018-04-16T06:11:55.528Z,81.21
2018-04-16T06:14:25.609Z,80.87
2018-04-16T06:16:55.693Z,80.29
2018-04-16T06:19:25.701Z,79.27
2018-04-16T06:21:55.670Z,78.97
2018-04-16T06:24:24.893Z,78.38
2018-04-16T06:26:54.161Z,76.79
2018-04-16T06:29:23.363Z,76.25
2018-04-16T06:31:52.579Z,76.16
2018-04-16T06:34:21.789Z,75.87
2018-04-16T06:36:51.116Z,75.75
2018-04-16T06:39:20.274Z,75.21
2018-04-16T06:41:49.495Z,74.09
2018-04-16T06:44:19.469Z,74.65
2018-04-16T06:46:48.672Z,74.17
2018-04-16T06:49:17.869Z,73.30
2018-04-16T06:51:47.129Z,74.37
2018-04-16T06:54:16.357Z,74.39
2018-04-16T06:56:45.596Z,74.59
2018-04-16T06:59:14.817Z,74.17
2018-04-16T07:01:44.059Z,73.45
2018-04-16T07:04:13.343Z,73.20
2018-04-16T07:06:42.556Z,72.68
2018-04-16T07:09:11.781Z,72.51
2018-04-16T07:11:41.779Z,72.08
2018-04-16T07:14:11.323Z,72.05
2018-04-16T07:16:41.335Z,72.23
2018-04-16T07:19:11.302Z,72.28
2018-04-16T07:21:40.527Z,72.37
2018-04-16T07:24:09.809Z,72.78
2018-04-16T07:26:39.075Z,72.63
2018-04-16T07:29:08.338Z,72.74
2018-04-16T07:31:37.562Z,71.32
2018-04-16T07:34:06.844Z,72.43
2018-04-16T07:36:37.042Z,72.12
2018-04-16T07:39:07.070Z,72.19
2018-04-16T07:41:37.065Z,71.36
2018-04-16T07:44:06.293Z,71.41
2018-04-16T07:46:35.800Z,70.35
2018-04-16T07:49:05.121Z,68.99
2018-04-16T07:51:34.353Z,69.44
2018-04-16T07:54:03.557Z,68.97
2018-04-16T07:56:32.769Z,69.08
2018-04-16T07:59:01.983Z,69.56
2018-04-16T08:01:31.948Z,67.49
2018-04-16T08:04:01.168Z,68.33
2018-04-16T08:06:30.377Z,67.96
2018-04-16T08:08:59.607Z,66.07
2018-04-16T08:11:28.773Z,66.92
2018-04-16T08:13:58.003Z,65.71
2018-04-16T08:16:27.243Z,63.56
2018-04-16T08:18:56.484Z,64.80
2018-04-16T08:21:25.726Z,63.54
2018-04-16T08:23:54.932Z,64.42
2018-04-16T08:26:24.154Z,65.94
2018-04-16T08:28:53.407Z,65.42
2018-04-16T08:31:22.647Z,64.08
2018-04-16T08:33:51.863Z,64.52
2018-04-16T08:36:21.078Z,64.10
2018-04-16T08:38:51.062Z,64.09
2018-04-16T08:41:20.343Z,61.45
2018-04-16T08:43:49.569Z,61.30
2018-04-16T08:46:18.786Z,62.97
2018-04-16T08:48:48.039Z,63.29
2018-04-16T08:51:17.269Z,64.82
2018-04-16T08:53:47.241Z,63.92
2018-04-16T08:56:16.461Z,62.80
2018-04-16T08:58:46.488Z,60.55
2018-04-16T09:01:15.713Z,60.56
2018-04-16T09:03:45.711Z,59.53
2018-04-16T09:06:14.956Z,61.12
2018-04-16T09:08:44.230Z,61.24
2018-04-16T09:11:13.554Z,62.57
2018-04-16T09:13:43.533Z,60.40
2018-04-16T09:16:12.793Z,60.71
2018-04-16T09:18:42.733Z,59.86
2018-04-16T09:21:11.958Z,58.83
2018-04-16T09:23:41.242Z,59.31
2018-04-16T09:26:11.255Z,59.00
2018-04-16T09:28:40.455Z,56.47
2018-04-16T09:31:10.485Z,58.60
2018-04-16T09:33:39.734Z,59.74
2018-04-16T09:36:08.969Z,56.13
2018-04-16T09:38:38.945Z,55.43
2018-04-16T09:41:08.242Z,58.03
2018-04-16T09:43:37.463Z,57.33
2018-04-16T09:46:06.705Z,57.13
2018-04-16T09:48:35.945Z,56.91
2018-04-16T09:51:05.168Z,56.62
2018-04-16T09:53:35.177Z,56.22
2018-04-16T09:56:04.492Z,57.91
2018-04-16T09:58:34.549Z,57.79
2018-04-16T10:01:03.892Z,56.91
2018-04-16T10:03:33.239Z,56.77
2018-04-16T10:06:02.515Z,55.31
2018-04-16T10:08:31.729Z,57.24
2018-04-16T10:11:00.942Z,57.10
2018-04-16T10:13:30.167Z,57.60
2018-04-16T10:15:59.402Z,56.49
2018-04-16T10:18:28.744Z,55.53
2018-04-16T10:20:58.735Z,55.84
2018-04-16T10:23:27.962Z,53.36
2018-04-16T10:25:57.197Z,55.47
2018-04-16T10:28:27.213Z,55.06
2018-04-16T10:30:57.227Z,55.07
2018-04-16T10:33:26.475Z,55.33
2018-04-16T10:35:55.779Z,51.38
2018-04-16T10:38:30.701Z,52.59
2018-04-16T10:40:59.961Z,54.70
2018-04-16T10:43:29.225Z,55.07
2018-04-16T10:45:58.458Z,55.19
2018-04-16T10:48:27.908Z,53.97
2018-04-16T10:50:57.124Z,56.64
2018-04-16T10:53:26.361Z,55.98
2018-04-16T10:55:56.334Z,55.68
2018-04-16T10:58:25.578Z,54.70
2018-04-16T11:00:54.812Z,55.83
2018-04-16T11:03:24.117Z,56.73
2018-04-16T11:05:53.320Z,56.09
2018-04-16T11:08:22.528Z,55.53
2018-04-16T11:10:51.904Z,54.53
2018-04-16T11:13:21.118Z,54.42
2018-04-16T11:15:50.341Z,56.29
2018-04-16T11:18:19.555Z,54.35
2018-04-16T11:20:48.774Z,55.50
2018-04-16T11:23:18.748Z,53.29
2018-04-16T11:25:47.970Z,54.45
2018-04-16T11:28:17.198Z,55.79
2018-04-16T11:30:46.441Z,53.14
2018-04-16T11:33:15.658Z,53.85
2018-04-16T11:35:44.873Z,51.93
2018-04-16T11:38:14.382Z,52.43
2018-04-16T11:40:44.411Z,50.50
2018-04-16T11:43:13.648Z,50.47
2018-04-16T11:45:42.869Z,49.05
2018-04-16T11:48:12.082Z,49.98
2018-04-16T11:50:42.083Z,52.12
2018-04-16T11:53:11.306Z,51.92
2018-04-16T11:55:41.350Z,52.49
2018-04-16T11:58:10.588Z,54.10
2018-04-16T12:00:39.850Z,54.07
2018-04-16T12:03:09.122Z,54.89
2018-04-16T12:05:39.119Z,52.08
2018-04-16T12:08:09.278Z,52.23
2018-04-16T12:10:38.559Z,52.42
2018-04-16T12:13:07.788Z,53.56
2018-04-16T12:15:37.334Z,52.51
2018-04-16T12:18:07.319Z,52.41
2018-04-16T12:20:36.550Z,52.20
2018-04-16T12:23:06.068Z,52.35
2018-04-16T12:25:36.070Z,52.88
2018-04-16T12:28:06.103Z,52.73
2018-04-16T12:30:36.079Z,52.97
2018-04-16T12:33:05.366Z,52.33
2018-04-16T12:35:35.321Z,52.99
2018-04-16T12:38:05.290Z,52.72
2018-04-16T12:40:34.568Z,52.32
2018-04-16T12:43:04.572Z,51.97
2018-04-16T12:45:34.553Z,53.94
2018-04-16T12:48:03.804Z,55.69
2018-04-16T12:50:33.008Z,54.54
2018-04-16T12:53:02.285Z,53.81
2018-04-16T12:55:31.505Z,51.03
2018-04-16T12:58:00.742Z,50.50
2018-04-16T13:00:30.027Z,52.03
2018-04-16T13:02:59.325Z,53.28
2018-04-16T13:05:28.598Z,53.00
2018-04-16T13:07:59.785Z,49.70
2018-04-16T13:10:29.037Z,50.65
2018-04-16T13:12:58.269Z,50.52
2018-04-16T13:15:27.508Z,52.75
2018-04-16T13:17:57.582Z,52.31
2018-04-16T13:20:29.835Z,50.39
2018-04-16T13:23:00.913Z,47.64
2018-04-16T13:25:30.515Z,48.62
2018-04-16T13:27:59.730Z,50.56
2018-04-16T13:30:30.309Z,51.62
2018-04-16T13:32:59.552Z,50.92
2018-04-16T13:35:28.777Z,49.88
2018-04-16T13:37:58.763Z,47.99
2018-04-16T13:40:28.462Z,48.52
2018-04-16T13:42:57.703Z,48.24
2018-04-16T13:45:27.681Z,48.00
2018-04-16T13:47:56.887Z,47.92
2018-04-16T13:50:27.917Z,47.38
2018-04-16T13:52:57.140Z,48.92
2018-04-16T13:55:27.168Z,45.59
2018-04-16T13:57:56.411Z,46.55
2018-04-16T14:00:25.649Z,47.89
2018-04-16T14:02:54.945Z,46.41
2018-04-16T14:05:25.004Z,47.04
2018-04-16T14:07:54.198Z,46.13
2018-04-16T14:10:23.445Z,47.06
2018-04-16T14:12:53.453Z,46.85
2018-04-16T14:15:24.333Z,47.15
2018-04-16T14:17:53.543Z,47.44
2018-04-16T14:20:22.758Z,47.00
2018-04-16T14:22:51.973Z,48.04
2018-04-16T14:25:21.210Z,47.15
2018-04-16T14:27:50.499Z,47.91
2018-04-16T14:30:20.548Z,47.79
2018-04-16T14:32:49.797Z,47.07
2018-04-16T14:35:19.011Z,48.00
2018-04-16T14:37:49.009Z,46.23
2018-04-16T14:40:18.228Z,46.49
2018-04-16T14:42:49.392Z,45.89
2018-04-16T14:45:21.537Z,46.60
2018-04-16T14:47:54.022Z,46.57
2018-04-16T14:50:24.161Z,46.55
2018-04-16T14:52:53.406Z,47.56
2018-04-16T14:55:23.616Z,46.32
2018-04-16T14:57:52.866Z,45.40
2018-04-16T15:00:22.123Z,45.89
2018-04-16T15:02:51.333Z,48.13
2018-04-16T15:05:20.518Z,47.25
2018-04-16T15:07:49.780Z,46.69
2018-04-16T15:10:19.019Z,47.78
2018-04-16T15:12:48.265Z,47.05
2018-04-16T15:15:18.306Z,47.73
2018-04-16T15:17:49.658Z,48.84
2018-04-16T15:20:21.879Z,49.92
2018-04-16T15:22:51.143Z,51.13
2018-04-16T15:25:22.005Z,51.93
2018-04-16T15:27:52.135Z,51.17
2018-04-16T15:30:21.393Z,51.32
2018-04-16T15:32:50.640Z,51.65
2018-04-16T15:35:19.891Z,49.97
2018-04-16T15:37:49.109Z,49.94
2018-04-16T15:40:22.221Z,50.03
2018-04-16T15:42:53.081Z,51.77
2018-04-16T15:45:22.524Z,49.45
2018-04-16T15:47:51.807Z,50.08
2018-04-16T15:50:21.051Z,49.85
2018-04-16T15:52:50.325Z,48.07
2018-04-16T15:55:20.861Z,49.65
2018-04-16T15:57:50.874Z,46.09
2018-04-16T16:00:20.930Z,48.10
2018-04-16T16:02:50.139Z,47.87
2018-04-16T16:05:21.834Z,48.18
2018-04-16T16:07:51.061Z,46.76
2018-04-16T16:10:21.589Z,47.56
2018-04-16T16:12:51.610Z,48.59
2018-04-16T16:15:20.876Z,48.06
2018-04-16T16:17:50.078Z,48.43
2018-04-16T16:20:19.388Z,50.21
2018-04-16T16:22:49.423Z,49.52
2018-04-16T16:25:18.702Z,50.01
2018-04-16T16:27:48.017Z,50.00
2018-04-16T16:30:17.282Z,48.57
2018-04-16T16:32:46.530Z,48.25
2018-04-16T16:35:15.761Z,49.05
2018-04-16T16:37:45.007Z,48.52
2018-04-16T16:40:14.281Z,48.70
2018-04-16T16:42:44.315Z,50.45
2018-04-16T16:45:15.422Z,49.07
2018-04-16T16:47:44.671Z,48.99
2018-04-16T16:50:13.905Z,49.00
2018-04-16T16:52:43.145Z,49.45
2018-04-16T16:55:12.419Z,49.85
2018-04-16T16:57:41.821Z,49.94
2018-04-16T17:00:11.063Z,49.70
2018-04-16T17:02:41.855Z,49.49
2018-04-16T17:05:11.090Z,49.25
2018-04-16T17:07:41.115Z,50.20
2018-04-16T17:10:11.911Z,50.56
2018-04-16T17:12:41.198Z,50.56
2018-04-16T17:15:10.422Z,51.29
2018-04-16T17:17:40.429Z,52.47
2018-04-16T17:20:09.686Z,52.24
2018-04-16T17:22:38.899Z,51.73
2018-04-16T17:25:08.107Z,52.16
2018-04-16T17:27:37.359Z,52.43
2018-04-16T17:30:06.632Z,52.17
2018-04-16T17:32:36.898Z,52.35
2018-04-16T17:35:06.184Z,52.78
2018-04-16T17:37:35.408Z,53.02
2018-04-16T17:40:04.627Z,52.52
2018-04-16T17:42:33.870Z,52.56
2018-04-16T17:45:06.500Z,52.60
2018-04-16T17:47:37.093Z,54.01
2018-04-16T17:50:07.368Z,53.13
2018-04-16T17:52:39.559Z,53.15
2018-04-16T17:55:08.855Z,53.25
2018-04-16T17:57:38.056Z,54.07
2018-04-16T18:00:10.092Z,54.47
2018-04-16T18:02:39.349Z,54.68
2018-04-16T18:05:08.593Z,54.45
2018-04-16T18:07:39.071Z,55.34
2018-04-16T18:10:08.519Z,55.29
2018-04-16T18:12:37.789Z,54.39
2018-04-16T18:15:07.271Z,54.46
2018-04-16T18:17:36.488Z,54.79
2018-04-16T18:20:05.918Z,55.68
2018-04-16T18:22:35.335Z,56.73
2018-04-16T18:25:06.100Z,57.85
2018-04-16T18:27:36.069Z,58.39
2018-04-16T18:30:05.307Z,58.93
2018-04-16T18:32:34.581Z,59.39
2018-04-16T18:35:03.816Z,60.04
2018-04-16T18:37:33.090Z,60.00
2018-04-16T18:40:03.083Z,61.13
2018-04-16T18:42:32.344Z,61.12
2018-04-16T18:45:07.733Z,61.68
2018-04-16T18:47:37.254Z,61.91
2018-04-16T18:50:06.483Z,61.80
2018-04-16T18:52:36.375Z,62.43
2018-04-16T18:55:05.640Z,62.55
2018-04-16T18:57:34.896Z,63.29
2018-04-16T19:00:04.142Z,63.31
2018-04-16T19:02:33.415Z,63.65
2018-04-16T19:05:02.627Z,63.59
2018-04-16T19:07:31.945Z,64.21
2018-04-16T19:10:01.171Z,64.48
2018-04-16T19:12:31.296Z,64.99
2018-04-16T19:15:00.518Z,65.08
2018-04-16T19:17:29.824Z,65.32
2018-04-16T19:19:59.883Z,65.22
2018-04-16T19:22:29.903Z,66.03
2018-04-16T19:24:59.892Z,66.14
2018-04-16T19:27:34.602Z,66.67
2018-04-16T19:30:03.832Z,67.34
2018-04-16T19:32:39.206Z,67.30
2018-04-16T19:35:08.480Z,67.14
2018-04-16T19:37:38.464Z,67.05
2018-04-16T19:40:07.705Z,66.97
2018-04-16T19:42:41.617Z,67.63
2018-04-16T19:45:10.937Z,67.24
2018-04-16T19:47:40.137Z,67.62
2018-04-16T19:50:09.444Z,68.17
2018-04-16T19:52:38.677Z,68.69
2018-04-16T19:55:07.997Z,68.04
2018-04-16T19:57:43.528Z,68.79
2018-04-16T20:00:12.752Z,68.22
2018-04-16T20:02:47.414Z,68.52
2018-04-16T20:05:16.671Z,69.17
2018-04-16T20:07:46.923Z,69.48
2018-04-16T20:10:16.162Z,69.78
2018-04-16T20:12:45.397Z,69.82
2018-04-16T20:15:15.397Z,70.20
2018-04-16T20:17:45.429Z,70.19
2018-04-16T20:20:15.414Z,70.50
2018-04-16T20:22:45.450Z,70.76
2018-04-16T20:25:15.448Z,68.89
2018-04-16T20:27:45.523Z,69.54
2018-04-16T20:30:14.754Z,69.07
2018-04-16T20:32:43.994Z,70.28
2018-04-16T20:35:13.202Z,70.39
2018-04-16T20:37:42.499Z,70.16
2018-04-16T20:40:11.720Z,70.72
2018-04-16T20:42:40.994Z,70.39
2018-04-16T20:45:10.220Z,70.25
2018-04-16T20:47:39.567Z,69.95
2018-04-16T20:50:09.546Z,70.52
2018-04-16T20:52:38.773Z,70.69
2018-04-16T20:55:08.825Z,70.47
2018-04-16T20:57:38.085Z,70.29
2018-04-16T21:00:08.098Z,70.35
2018-04-16T21:02:37.347Z,70.77
2018-04-16T21:05:06.573Z,70.86
2018-04-16T21:07:35.849Z,71.23
2018-04-16T21:10:05.093Z,70.86
2018-04-16T21:12:34.317Z,71.66
2018-04-16T21:15:03.577Z,71.29
2018-04-16T21:20:09.095Z,72.13
2018-04-16T21:22:38.299Z,72.43
2018-04-16T21:25:07.521Z,72.64
2018-04-16T21:27:36.788Z,73.00
2018-04-16T21:30:06.016Z,72.93
2018-04-16T21:32:35.214Z,73.26
2018-04-16T21:35:04.461Z,73.39
2018-04-16T21:37:33.666Z,73.07
2018-04-16T21:40:02.902Z,73.66
2018-04-16T21:42:32.284Z,73.81
2018-04-16T21:45:01.519Z,73.68
2018-04-16T21:47:30.784Z,73.75
2018-04-16T21:50:00.035Z,73.94
2018-04-16T21:52:30.028Z,73.57
2018-04-16T21:54:59.397Z,73.95
2018-04-16T21:57:28.599Z,74.12
2018-04-16T21:59:57.865Z,74.75
2018-04-16T22:02:27.945Z,75.15
2018-04-16T22:04:57.963Z,75.52
2018-04-16T22:07:27.189Z,75.41
2018-04-16T22:09:57.189Z,75.58
2018-04-16T22:12:26.454Z,75.77
2018-04-16T22:14:55.674Z,75.69
2018-04-16T22:17:24.868Z,75.66
2018-04-16T22:19:54.080Z,75.57
2018-04-16T22:22:23.304Z,75.52
2018-04-16T22:24:52.504Z,75.86
2018-04-16T22:27:21.776Z,76.39
2018-04-16T22:29:50.998Z,76.19
2018-04-16T22:32:20.253Z,76.44
2018-04-16T22:34:49.465Z,76.47
2018-04-16T22:37:18.676Z,76.42
2018-04-16T22:39:48.644Z,76.51
2018-04-16T22:42:18.698Z,76.69
2018-04-16T22:44:48.758Z,76.56
2018-04-16T22:47:18.021Z,76.42
2018-04-16T22:49:47.240Z,76.34
2018-04-16T22:52:16.517Z,76.72
2018-04-16T22:54:46.670Z,76.49
2018-04-16T22:57:15.896Z,76.88
2018-04-16T22:59:45.157Z,77.14
2018-04-16T23:02:14.368Z,77.06
2018-04-16T23:04:43.586Z,77.64
2018-04-16T23:07:12.793Z,77.83
2018-04-16T23:09:42.034Z,77.82
2018-04-16T23:12:12.141Z,77.55
2018-04-16T23:14:41.841Z,77.62
2018-04-16T23:17:11.044Z,78.27
2018-04-16T23:19:41.059Z,78.04
2018-04-16T23:22:10.310Z,78.34
2018-04-16T23:24:39.551Z,78.81
2018-04-16T23:27:08.804Z,78.22
2018-04-16T23:29:38.056Z,78.45
2018-04-16T23:32:07.260Z,78.63
2018-04-16T23:34:37.273Z,78.92
2018-04-16T23:37:07.252Z,79.21
2018-04-16T23:39:36.518Z,79.39
2018-04-16T23:42:05.755Z,79.72
2018-04-16T23:44:35.793Z,79.62
2018-04-16T23:47:05.181Z,79.68
2018-04-16T23:49:34.395Z,79.23
2018-04-16T23:52:03.624Z,79.61
2018-04-16T23:54:32.855Z,79.69
2018-04-16T23:57:02.080Z,80.02
2018-04-16T23:59:31.295Z,80.08
